createdAt,value
2018-11-07T00:00:19.439Z,10.30
2018-11-07T00:02:48.820Z,10.40
2018-11-07T00:05:18.978Z,10.50
2018-11-07T00:07:48.234Z,10.50
2018-11-07T00:10:17.451Z,10.60
2018-11-07T00:12:46.720Z,10.60
2018-11-07T00:15:16.541Z,10.50
2018-11-07T00:17:45.752Z,10.60
2018-11-07T00:20:14.915Z,10.60
2018-11-07T00:22:44.105Z,10.60
2018-11-07T00:25:13.437Z,10.70
2018-11-07T00:27:42.776Z,10.60
2018-11-07T00:30:12.488Z,10.60
2018-11-07T00:32:41.643Z,10.50
2018-11-07T00:35:11.800Z,10.40
2018-11-07T00:37:41.983Z,10.40
2018-11-07T00:40:11.370Z,10.40
2018-11-07T00:42:40.591Z,10.40
2018-11-07T00:45:11.646Z,10.40
2018-11-07T00:47:40.825Z,10.40
2018-11-07T00:50:12.787Z,10.40
2018-11-07T00:52:42.304Z,10.40
2018-11-07T00:55:12.293Z,10.30
2018-11-07T00:57:41.668Z,10.30
2018-11-07T01:00:13.597Z,10.30
2018-11-07T01:02:42.807Z,10.40
2018-11-07T01:05:13.295Z,10.40
2018-11-07T01:07:43.503Z,10.40
2018-11-07T01:10:12.736Z,10.40
2018-11-07T01:12:42.825Z,10.30
2018-11-07T01:15:12.969Z,10.20
2018-11-07T01:17:42.158Z,10.20
2018-11-07T01:20:12.902Z,10.20
2018-11-07T01:22:47.125Z,10.10
2018-11-07T01:25:16.412Z,10.10
2018-11-07T01:27:45.575Z,10.00
2018-11-07T01:30:15.231Z,10.00
2018-11-07T01:32:44.450Z,10.00
2018-11-07T01:35:13.760Z,10.10
2018-11-07T01:37:42.909Z,10.10
2018-11-07T01:40:13.972Z,10.10
2018-11-07T01:42:44.033Z,10.10
2018-11-07T01:45:13.784Z,10.10
2018-11-07T01:47:43.075Z,10.10
2018-11-07T01:50:13.325Z,10.10
2018-11-07T01:52:42.504Z,10.00
2018-11-07T01:55:12.009Z,10.00
2018-11-07T01:57:41.243Z,9.90
2018-11-07T02:00:12.220Z,9.90
2018-11-07T02:02:42.650Z,9.80
2018-11-07T02:05:11.897Z,9.70
2018-11-07T02:07:41.328Z,9.60
2018-11-07T02:10:11.118Z,9.50
2018-11-07T02:12:40.928Z,9.40
2018-11-07T02:15:10.906Z,9.30
2018-11-07T02:17:40.272Z,9.20
2018-11-07T02:20:10.409Z,9.10
2018-11-07T02:22:39.648Z,9.10
2018-11-07T02:25:08.991Z,9.00
2018-11-07T02:27:38.228Z,8.90
2018-11-07T02:30:10.002Z,8.90
2018-11-07T02:32:39.184Z,8.80
2018-11-07T02:35:08.432Z,8.70
2018-11-07T02:37:37.611Z,8.70
2018-11-07T02:40:07.604Z,8.70
2018-11-07T02:42:36.872Z,8.70
2018-11-07T02:45:06.362Z,8.60
2018-11-07T02:47:35.518Z,8.60
2018-11-07T02:50:04.863Z,8.60
2018-11-07T02:52:33.998Z,8.50
2018-11-07T02:55:15.938Z,8.50
2018-11-07T02:57:45.104Z,8.40
2018-11-07T03:00:14.515Z,8.40
2018-11-07T03:02:43.650Z,8.30
2018-11-07T03:05:12.861Z,8.30
2018-11-07T03:07:42.214Z,8.20
2018-11-07T03:10:12.802Z,8.20
2018-11-07T03:12:42.400Z,8.10
2018-11-07T03:15:11.576Z,8.10
2018-11-07T03:17:40.757Z,8.00
2018-11-07T03:20:11.390Z,8.00
2018-11-07T03:22:40.575Z,7.90
2018-11-07T03:25:09.889Z,7.80
2018-11-07T03:27:39.021Z,7.80
2018-11-07T03:30:09.175Z,7.70
2018-11-07T03:32:38.386Z,7.70
2018-11-07T03:35:11.869Z,7.70
2018-11-07T03:37:41.061Z,7.60
2018-11-07T03:40:10.223Z,7.60
2018-11-07T03:42:39.375Z,7.50
2018-11-07T03:45:08.548Z,7.50
2018-11-07T03:47:37.730Z,7.50
2018-11-07T03:50:07.022Z,7.50
2018-11-07T03:52:36.240Z,7.50
2018-11-07T03:55:05.412Z,7.40
2018-11-07T03:57:34.640Z,7.40
2018-11-07T04:00:04.029Z,7.40
2018-11-07T04:02:33.179Z,7.40
2018-11-07T04:05:02.689Z,7.40
2018-11-07T04:07:31.851Z,7.30
2018-11-07T04:10:00.983Z,7.30
2018-11-07T04:12:30.148Z,7.30
2018-11-07T04:14:59.380Z,7.30
2018-11-07T04:17:28.528Z,7.20
2018-11-07T04:19:57.689Z,7.20
2018-11-07T04:22:26.834Z,7.20
2018-11-07T04:24:56.025Z,7.20
2018-11-07T04:27:29.637Z,7.20
2018-11-07T04:29:59.145Z,7.10
2018-11-07T04:32:28.368Z,7.20
2018-11-07T04:34:57.604Z,7.20
2018-11-07T04:37:26.776Z,7.20
2018-11-07T04:39:55.985Z,7.10
2018-11-07T04:42:25.208Z,7.10
2018-11-07T04:44:54.375Z,7.10
2018-11-07T04:47:23.765Z,7.10
2018-11-07T04:49:52.960Z,7.10
2018-11-07T04:52:22.167Z,7.10
2018-11-07T04:54:51.306Z,7.10
2018-11-07T04:57:20.505Z,7.10
2018-11-07T04:59:49.608Z,7.10
2018-11-07T05:02:18.811Z,7.10
2018-11-07T05:04:47.913Z,7.10
2018-11-07T05:07:17.128Z,7.10
2018-11-07T05:09:49.109Z,7.00
2018-11-07T05:12:18.285Z,7.00
2018-11-07T05:14:53.111Z,7.00
2018-11-07T05:17:22.338Z,6.90
2018-11-07T05:19:51.576Z,6.90
2018-11-07T05:22:20.744Z,6.90
2018-11-07T05:24:49.916Z,6.80
2018-11-07T05:27:19.131Z,6.80
2018-11-07T05:29:48.241Z,6.80
2018-11-07T05:32:17.356Z,6.80
2018-11-07T05:34:46.555Z,6.80
2018-11-07T05:37:15.765Z,6.80
2018-11-07T05:39:44.897Z,6.90
2018-11-07T05:42:14.112Z,6.90
2018-11-07T05:44:43.274Z,6.90
2018-11-07T05:47:12.476Z,6.90
2018-11-07T05:49:41.647Z,6.90
2018-11-07T05:52:10.836Z,7.00
2018-11-07T05:54:40.003Z,7.00
2018-11-07T05:57:09.183Z,7.00
2018-11-07T05:59:38.344Z,7.00
2018-11-07T06:02:07.539Z,7.10
2018-11-07T06:04:36.663Z,7.10
2018-11-07T06:07:05.891Z,7.20
2018-11-07T06:09:35.121Z,7.20
2018-11-07T06:12:04.395Z,7.20
2018-11-07T06:14:33.640Z,7.30
2018-11-07T06:17:02.766Z,7.40
2018-11-07T06:19:31.833Z,7.40
2018-11-07T06:22:00.955Z,7.40
2018-11-07T06:24:30.083Z,7.50
2018-11-07T06:26:59.360Z,7.50
2018-11-07T06:29:28.540Z,7.60
2018-11-07T06:31:57.765Z,7.60
2018-11-07T06:34:26.877Z,7.70
2018-11-07T06:36:56.005Z,7.70
2018-11-07T06:39:25.186Z,7.80
2018-11-07T06:41:54.341Z,7.90
2018-11-07T06:44:23.625Z,7.90
2018-11-07T06:46:52.823Z,8.00
2018-11-07T06:49:21.935Z,8.10
2018-11-07T06:51:51.060Z,8.20
2018-11-07T06:54:20.259Z,8.20
2018-11-07T06:56:49.419Z,8.30
2018-11-07T06:59:18.533Z,8.40
2018-11-07T07:01:47.750Z,8.50
2018-11-07T07:04:17.225Z,8.50
2018-11-07T07:06:46.628Z,8.70
2018-11-07T07:09:15.770Z,8.70
2018-11-07T07:11:44.925Z,8.80
2018-11-07T07:14:14.166Z,8.90
2018-11-07T07:16:43.415Z,8.90
2018-11-07T07:19:13.110Z,9.00
2018-11-07T07:21:42.226Z,9.10
2018-11-07T07:24:11.358Z,9.20
2018-11-07T07:26:40.515Z,9.30
2018-11-07T07:29:09.678Z,9.40
2018-11-07T07:31:38.869Z,9.50
2018-11-07T07:34:08.101Z,9.50
2018-11-07T07:36:37.248Z,9.60
2018-11-07T07:39:08.527Z,9.70
2018-11-07T07:41:37.707Z,9.80
2018-11-07T07:44:07.134Z,9.80
2018-11-07T07:46:36.317Z,10.00
2018-11-07T07:49:05.889Z,10.10
2018-11-07T07:51:35.176Z,10.10
2018-11-07T07:54:04.422Z,10.30
2018-11-07T07:56:33.651Z,10.30
2018-11-07T07:59:02.874Z,10.40
2018-11-07T08:01:32.148Z,10.50
2018-11-07T08:04:01.358Z,10.60
2018-11-07T08:06:33.796Z,10.70
2018-11-07T08:09:02.998Z,10.80
2018-11-07T08:11:32.177Z,10.90
2018-11-07T08:14:01.429Z,11.00
2018-11-07T08:16:30.577Z,11.10
2018-11-07T08:18:59.704Z,11.20
2018-11-07T08:21:29.094Z,11.30
2018-11-07T08:23:58.297Z,11.40
2018-11-07T08:26:27.527Z,11.50
2018-11-07T08:28:56.733Z,11.60
2018-11-07T08:31:25.871Z,11.70
2018-11-07T08:33:55.072Z,11.80
2018-11-07T08:36:24.232Z,12.00
2018-11-07T08:38:53.477Z,12.20
2018-11-07T08:41:22.565Z,12.40
2018-11-07T08:43:51.818Z,12.40
2018-11-07T08:46:21.072Z,12.50
2018-11-07T08:48:50.273Z,12.50
2018-11-07T08:51:19.499Z,12.50
2018-11-07T08:53:48.624Z,12.60
2018-11-07T08:56:17.779Z,12.70
2018-11-07T08:58:46.955Z,12.60
2018-11-07T09:01:16.220Z,12.60
2018-11-07T09:03:45.376Z,12.60
2018-11-07T09:06:14.561Z,12.60
2018-11-07T09:08:43.695Z,12.50
2018-11-07T09:11:12.967Z,12.50
2018-11-07T09:13:42.164Z,12.60
2018-11-07T09:16:11.378Z,12.80
2018-11-07T09:18:40.551Z,13.00
2018-11-07T09:21:09.750Z,13.20
2018-11-07T09:23:38.998Z,13.40
2018-11-07T09:26:08.312Z,13.50
2018-11-07T09:28:37.501Z,13.60
2018-11-07T09:31:06.752Z,13.80
2018-11-07T09:33:36.098Z,14.00
2018-11-07T09:36:05.407Z,14.20
2018-11-07T09:38:34.674Z,14.40
2018-11-07T09:41:03.818Z,14.40
2018-11-07T09:43:33.073Z,14.20
2018-11-07T09:46:02.257Z,13.90
2018-11-07T09:48:31.447Z,13.70
2018-11-07T09:51:00.675Z,13.80
2018-11-07T09:53:29.887Z,13.70
2018-11-07T09:55:59.049Z,13.60
2018-11-07T09:58:28.307Z,13.50
2018-11-07T10:00:57.496Z,13.50
2018-11-07T10:03:26.718Z,13.60
2018-11-07T10:05:55.893Z,13.80
2018-11-07T10:08:25.101Z,13.80
2018-11-07T10:10:54.318Z,13.90
2018-11-07T10:13:23.497Z,13.80
2018-11-07T10:15:52.672Z,14.00
2018-11-07T10:18:21.850Z,14.10
2018-11-07T10:20:51.079Z,13.90
2018-11-07T10:23:20.273Z,13.80
2018-11-07T10:25:49.488Z,13.80
2018-11-07T10:28:18.816Z,13.90
2018-11-07T10:30:47.964Z,14.10
2018-11-07T10:33:17.111Z,14.00
2018-11-07T10:35:46.331Z,14.00
2018-11-07T10:38:15.465Z,13.80
2018-11-07T10:40:44.776Z,13.70
2018-11-07T10:43:13.920Z,13.70
2018-11-07T10:45:43.081Z,13.70
2018-11-07T10:48:12.273Z,13.70
2018-11-07T10:50:41.446Z,13.70
2018-11-07T10:53:10.691Z,13.80
2018-11-07T10:55:39.877Z,13.90
2018-11-07T10:58:09.032Z,14.00
2018-11-07T11:00:43.391Z,14.00
2018-11-07T11:03:17.533Z,14.10
2018-11-07T11:05:46.765Z,14.10
2018-11-07T11:08:16.796Z,14.20
2018-11-07T11:10:45.990Z,14.30
2018-11-07T11:13:15.253Z,14.40
2018-11-07T11:15:44.413Z,14.60
2018-11-07T11:18:13.624Z,14.90
2018-11-07T11:20:42.813Z,15.00
2018-11-07T11:23:12.018Z,15.10
2018-11-07T11:25:41.269Z,15.10
2018-11-07T11:28:10.498Z,15.10
2018-11-07T11:30:39.721Z,15.30
2018-11-07T11:33:08.903Z,15.40
2018-11-07T11:35:38.009Z,15.50
2018-11-07T11:38:07.381Z,15.70
2018-11-07T11:40:36.554Z,15.80
2018-11-07T11:43:05.858Z,16.00
2018-11-07T11:45:35.156Z,16.00
2018-11-07T11:48:04.352Z,16.10
2018-11-07T11:50:33.492Z,16.20
2018-11-07T11:53:02.663Z,16.10
2018-11-07T11:55:31.880Z,16.10
2018-11-07T11:58:01.076Z,16.20
2018-11-07T12:00:30.221Z,16.40
2018-11-07T12:02:59.337Z,16.70
2018-11-07T12:05:28.513Z,16.70
2018-11-07T12:07:57.661Z,16.70
2018-11-07T12:10:27.337Z,16.80
2018-11-07T12:12:57.662Z,17.00
2018-11-07T12:15:27.978Z,17.20
2018-11-07T12:17:57.511Z,17.40
2018-11-07T12:20:26.782Z,17.30
2018-11-07T12:22:55.963Z,17.30
2018-11-07T12:25:25.208Z,17.20
2018-11-07T12:27:54.431Z,17.30
2018-11-07T12:30:24.407Z,17.30
2018-11-07T12:32:54.528Z,17.50
2018-11-07T12:35:24.041Z,17.60
2018-11-07T12:37:53.211Z,17.80
2018-11-07T12:40:22.378Z,18.10
2018-11-07T12:42:51.609Z,17.60
2018-11-07T12:45:20.769Z,17.40
2018-11-07T12:47:49.893Z,17.20
2018-11-07T12:50:20.687Z,17.20
2018-11-07T12:52:49.778Z,17.20
2018-11-07T12:55:19.680Z,17.20
2018-11-07T12:57:48.950Z,17.40
2018-11-07T13:00:21.307Z,17.60
2018-11-07T13:02:50.581Z,17.70
2018-11-07T13:05:20.713Z,17.60
2018-11-07T13:07:50.506Z,17.40
2018-11-07T13:10:20.781Z,17.20
2018-11-07T13:12:50.504Z,17.00
2018-11-07T13:15:19.923Z,16.90
2018-11-07T13:17:50.181Z,16.70
2018-11-07T13:20:20.653Z,16.50
2018-11-07T13:22:51.126Z,16.50
2018-11-07T13:25:20.661Z,16.40
2018-11-07T13:27:49.800Z,16.30
2018-11-07T13:30:20.283Z,16.30
2018-11-07T13:32:49.421Z,16.00
2018-11-07T13:35:19.395Z,15.90
2018-11-07T13:37:49.365Z,15.80
2018-11-07T13:40:22.597Z,15.80
2018-11-07T13:42:51.728Z,15.70
2018-11-07T13:45:22.108Z,15.70
2018-11-07T13:47:52.517Z,15.70
2018-11-07T13:50:21.756Z,15.70
2018-11-07T13:52:51.000Z,15.60
2018-11-07T13:55:20.103Z,15.60
2018-11-07T13:57:49.244Z,15.60
2018-11-07T14:00:19.871Z,15.50
2018-11-07T14:02:49.433Z,15.50
2018-11-07T14:05:18.757Z,15.40
2018-11-07T14:07:47.859Z,15.40
2018-11-07T14:10:20.466Z,15.30
2018-11-07T14:12:49.838Z,15.30
2018-11-07T14:15:19.001Z,15.20
2018-11-07T14:17:48.210Z,15.20
2018-11-07T14:20:17.624Z,15.10
2018-11-07T14:22:46.812Z,15.10
2018-11-07T14:25:15.993Z,15.00
2018-11-07T14:27:45.466Z,15.00
2018-11-07T14:30:18.807Z,14.90
2018-11-07T14:32:51.512Z,14.80
2018-11-07T14:35:21.003Z,14.80
2018-11-07T14:37:50.423Z,14.70
2018-11-07T14:40:19.563Z,14.60
2018-11-07T14:42:48.732Z,14.40
2018-11-07T14:45:17.921Z,14.30
2018-11-07T14:47:47.112Z,14.30
2018-11-07T14:50:16.251Z,14.20
2018-11-07T14:52:45.426Z,14.00
2018-11-07T14:55:14.723Z,13.90
2018-11-07T14:57:43.882Z,13.90
2018-11-07T15:00:14.747Z,13.80
2018-11-07T15:02:44.513Z,13.70
2018-11-07T15:05:14.573Z,13.60
2018-11-07T15:07:44.630Z,13.50
2018-11-07T15:10:14.748Z,13.50
2018-11-07T15:12:44.102Z,13.40
2018-11-07T15:15:14.773Z,13.30
2018-11-07T15:17:44.054Z,13.20
2018-11-07T15:20:14.268Z,13.10
2018-11-07T15:22:43.551Z,13.00
2018-11-07T15:25:13.949Z,12.90
2018-11-07T15:27:44.468Z,12.80
2018-11-07T15:30:14.545Z,12.70
2018-11-07T15:32:44.166Z,12.70
2018-11-07T15:35:13.651Z,12.60
2018-11-07T15:37:42.811Z,12.50
2018-11-07T15:40:15.539Z,12.40
2018-11-07T15:42:45.300Z,12.30
2018-11-07T15:45:15.785Z,12.30
2018-11-07T15:47:45.063Z,12.20
2018-11-07T15:51:17.217Z,12.10
2018-11-07T15:53:46.387Z,12.00
2018-11-07T15:56:15.637Z,11.90
2018-11-07T15:58:44.976Z,11.90
2018-11-07T16:01:14.224Z,11.80
2018-11-07T16:03:48.711Z,11.80
2018-11-07T16:06:19.186Z,11.70
2018-11-07T16:08:48.230Z,11.60
2018-11-07T16:11:17.578Z,11.50
2018-11-07T16:13:49.048Z,11.40
2018-11-07T16:16:18.502Z,11.40
2018-11-07T16:18:47.697Z,11.30
2018-11-07T16:21:16.881Z,11.20
2018-11-07T16:23:46.103Z,11.10
2018-11-07T16:26:15.373Z,11.00
2018-11-07T16:28:44.565Z,11.00
2018-11-07T16:31:13.828Z,11.20
2018-11-07T16:33:43.041Z,11.30
2018-11-07T16:36:12.249Z,11.30
2018-11-07T16:38:41.470Z,11.30
2018-11-07T16:41:10.724Z,11.50
2018-11-07T16:43:40.383Z,11.50
2018-11-07T16:46:09.570Z,11.50
2018-11-07T16:48:38.806Z,11.60
2018-11-07T16:51:08.065Z,11.60
2018-11-07T16:53:37.317Z,11.70
2018-11-07T16:56:06.974Z,11.70
2018-11-07T16:58:36.154Z,11.70
2018-11-07T17:01:05.474Z,11.70
2018-11-07T17:03:34.682Z,11.70
2018-11-07T17:06:03.857Z,11.70
2018-11-07T17:08:33.053Z,11.60
2018-11-07T17:11:02.270Z,11.50
2018-11-07T17:13:31.450Z,11.40
2018-11-07T17:16:00.635Z,11.40
2018-11-07T17:18:29.826Z,11.30
2018-11-07T17:20:59.078Z,11.30
2018-11-07T17:23:28.384Z,11.30
2018-11-07T17:25:57.582Z,11.20
2018-11-07T17:28:26.817Z,11.20
2018-11-07T17:30:56.009Z,11.20
2018-11-07T17:33:25.305Z,11.10
2018-11-07T17:35:54.554Z,11.20
2018-11-07T17:38:23.806Z,11.20
2018-11-07T17:40:53.161Z,11.10
2018-11-07T17:43:22.336Z,11.10
2018-11-07T17:45:51.658Z,11.00
2018-11-07T17:48:21.038Z,10.90
2018-11-07T17:50:50.202Z,10.80
2018-11-07T17:53:19.546Z,10.80
2018-11-07T17:55:49.147Z,10.70
2018-11-07T17:58:18.479Z,10.70
2018-11-07T18:00:47.692Z,10.60
2018-11-07T18:03:17.003Z,10.60
2018-11-07T18:05:46.398Z,10.60
2018-11-07T18:08:15.973Z,10.60
2018-11-07T18:10:45.433Z,10.70
2018-11-07T18:13:14.688Z,10.80
2018-11-07T18:15:44.108Z,10.90
2018-11-07T18:18:13.648Z,11.00
2018-11-07T18:20:43.317Z,11.10
2018-11-07T18:23:12.938Z,11.10
2018-11-07T18:25:42.485Z,11.10
2018-11-07T18:28:12.148Z,11.10
2018-11-07T18:30:41.875Z,11.10
2018-11-07T18:33:11.512Z,11.00
2018-11-07T18:35:41.169Z,10.90
2018-11-07T18:38:10.952Z,10.80
2018-11-07T18:40:40.750Z,10.80
2018-11-07T18:43:10.613Z,10.70
2018-11-07T18:45:40.184Z,10.60
2018-11-07T18:48:09.812Z,10.50
2018-11-07T18:50:39.583Z,10.30
2018-11-07T18:53:09.176Z,10.30
2018-11-07T18:55:38.782Z,10.20
2018-11-07T18:58:08.622Z,10.10
2018-11-07T19:00:38.380Z,10.00
2018-11-07T19:03:08.143Z,10.00
2018-11-07T19:05:38.723Z,9.90
2018-11-07T19:08:08.468Z,9.90
2018-11-07T19:10:38.798Z,9.80
2018-11-07T19:13:08.582Z,9.80
2018-11-07T19:15:38.337Z,9.80
2018-11-07T19:18:08.042Z,9.70
2018-11-07T19:20:37.736Z,9.70
2018-11-07T19:23:07.645Z,9.70
2018-11-07T19:25:37.266Z,9.70
2018-11-07T19:28:07.467Z,9.70
2018-11-07T19:30:37.388Z,9.60
2018-11-07T19:33:07.227Z,9.60
2018-11-07T19:35:36.876Z,9.50
2018-11-07T19:38:06.666Z,9.50
2018-11-07T19:40:36.366Z,9.50
2018-11-07T19:43:06.111Z,9.50
2018-11-07T19:45:35.886Z,9.40
2018-11-07T19:48:05.670Z,9.40
2018-11-07T19:50:35.346Z,9.30
2018-11-07T19:53:05.072Z,9.20
2018-11-07T19:55:34.821Z,9.20
2018-11-07T19:58:09.166Z,9.20
2018-11-07T20:00:38.940Z,9.20
2018-11-07T20:03:08.722Z,9.10
2018-11-07T20:05:38.372Z,9.10
2018-11-07T20:08:08.189Z,9.10
2018-11-07T20:10:38.015Z,9.10
2018-11-07T20:13:07.801Z,9.10
2018-11-07T20:15:37.642Z,9.10
2018-11-07T20:18:08.517Z,9.10
2018-11-07T20:20:38.190Z,9.10
2018-11-07T20:23:07.982Z,9.10
2018-11-07T20:25:37.692Z,9.00
2018-11-07T20:28:07.547Z,9.00
2018-11-07T20:30:37.183Z,9.00
2018-11-07T20:33:07.229Z,9.00
2018-11-07T20:35:36.930Z,9.00
2018-11-07T20:38:06.858Z,9.00
2018-11-07T20:40:36.629Z,8.90
2018-11-07T20:43:06.801Z,8.90
2018-11-07T20:45:36.573Z,8.90
2018-11-07T20:48:06.426Z,8.90
2018-11-07T20:50:36.201Z,8.80
2018-11-07T20:53:06.072Z,8.80
2018-11-07T20:55:35.878Z,8.80
2018-11-07T20:58:05.714Z,8.70
2018-11-07T21:00:35.456Z,8.70
2018-11-07T21:03:05.193Z,8.60
2018-11-07T21:05:34.922Z,8.60
2018-11-07T21:08:04.647Z,8.60
2018-11-07T21:10:34.348Z,8.50
2018-11-07T21:13:04.603Z,8.50
2018-11-07T21:15:34.243Z,8.50
2018-11-07T21:18:03.875Z,8.50
2018-11-07T21:20:33.573Z,8.40
2018-11-07T21:23:03.162Z,8.40
2018-11-07T21:25:32.933Z,8.40
2018-11-07T21:28:02.582Z,8.40
2018-11-07T21:30:33.621Z,8.40
2018-11-07T21:33:03.258Z,8.40
2018-11-07T21:35:32.829Z,8.30
2018-11-07T21:38:02.367Z,8.30
2018-11-07T21:40:31.843Z,8.30
2018-11-07T21:43:01.415Z,8.30
2018-11-07T21:45:30.862Z,8.30
2018-11-07T21:48:00.188Z,8.30
2018-11-07T21:50:29.605Z,8.20
2018-11-07T21:52:58.719Z,8.20
2018-11-07T21:55:28.042Z,8.20
2018-11-07T21:57:57.206Z,8.20
2018-11-07T22:00:26.662Z,8.20
2018-11-07T22:02:55.949Z,8.20
2018-11-07T22:05:25.459Z,8.20
2018-11-07T22:07:54.877Z,8.20
2018-11-07T22:10:24.564Z,8.20
2018-11-07T22:13:12.085Z,8.20
2018-11-07T22:15:41.360Z,8.20
2018-11-07T22:18:14.431Z,8.10
2018-11-07T22:20:43.527Z,8.10
2018-11-07T22:23:12.655Z,8.10
2018-11-07T22:25:41.844Z,8.10
2018-11-07T22:28:11.018Z,8.10
2018-11-07T22:30:40.178Z,8.10
2018-11-07T22:33:09.319Z,8.00
2018-11-07T22:35:38.428Z,8.00
2018-11-07T22:38:07.549Z,8.00
2018-11-07T22:40:36.781Z,8.00
2018-11-07T22:43:06.429Z,8.00
2018-11-07T22:45:36.298Z,8.00
2018-11-07T22:48:05.777Z,8.00
2018-11-07T22:50:35.450Z,8.00
2018-11-07T22:53:04.833Z,8.00
2018-11-07T22:55:34.043Z,8.00
2018-11-07T22:58:03.204Z,8.00
2018-11-07T23:00:37.748Z,8.00
2018-11-07T23:03:06.903Z,7.90
2018-11-07T23:05:36.090Z,7.90
2018-11-07T23:08:05.348Z,7.90
2018-11-07T23:10:34.874Z,7.90
2018-11-07T23:13:04.044Z,7.90
2018-11-07T23:15:38.836Z,7.90
2018-11-07T23:18:07.957Z,7.90
2018-11-07T23:20:37.199Z,7.90
2018-11-07T23:23:06.587Z,7.80
2018-11-07T23:25:35.691Z,7.90
2018-11-07T23:28:04.877Z,7.80
2018-11-07T23:30:34.009Z,7.80
2018-11-07T23:33:03.113Z,7.80
2018-11-07T23:35:32.251Z,7.70
2018-11-07T23:38:01.471Z,7.70
2018-11-07T23:40:30.662Z,7.70
2018-11-07T23:42:59.721Z,7.70
2018-11-07T23:45:28.878Z,7.60
2018-11-07T23:47:57.987Z,7.60
2018-11-07T23:50:27.059Z,7.60
2018-11-07T23:52:56.239Z,7.60
2018-11-07T23:55:25.353Z,7.50
2018-11-07T23:57:54.861Z,7.50
